Map

Track Data

SID SEASON NUMBER BASIN SUBBASIN NAME ISO_TIME NATURE LAT LON WMO_WIND WMO_PRES WMO_AGENCY TRACK_TYPE DIST2LAND LANDFALL IFLAG USA_AGENCY USA_ATCF_ID USA_LAT USA_LON USA_RECORD USA_STATUS USA_WIND USA_PRES USA_SSHS USA_R34_NE USA_R34_SE USA_R34_SW USA_R34_NW USA_R50_NE USA_R50_SE USA_R50_SW USA_R50_NW USA_R64_NE USA_R64_SE USA_R64_SW USA_R64_NW USA_POCI USA_ROCI USA_RMW USA_EYE TOKYO_LAT TOKYO_LON TOKYO_GRADE TOKYO_WIND TOKYO_PRES TOKYO_R50_DIR TOKYO_R50_LONG TOKYO_R50_SHORT TOKYO_R30_DIR TOKYO_R30_LONG TOKYO_R30_SHORT TOKYO_LAND CMA_LAT CMA_LON CMA_CAT CMA_WIND CMA_PRES HKO_LAT HKO_LON HKO_CAT HKO_WIND HKO_PRES NEWDELHI_LAT NEWDELHI_LON NEWDELHI_GRADE NEWDELHI_WIND NEWDELHI_PRES NEWDELHI_CI NEWDELHI_DP NEWDELHI_POCI REUNION_LAT REUNION_LON REUNION_TYPE REUNION_WIND REUNION_PRES REUNION_TNUM REUNION_CI REUNION_RMW REUNION_R34_NE REUNION_R34_SE REUNION_R34_SW REUNION_R34_NW REUNION_R50_NE REUNION_R50_SE REUNION_R50_SW REUNION_R50_NW REUNION_R64_NE REUNION_R64_SE REUNION_R64_SW REUNION_R64_NW BOM_LAT BOM_LON BOM_TYPE BOM_WIND BOM_PRES BOM_TNUM BOM_CI BOM_RMW BOM_R34_NE BOM_R34_SE BOM_R34_SW BOM_R34_NW BOM_R50_NE BOM_R50_SE BOM_R50_SW BOM_R50_NW BOM_R64_NE BOM_R64_SE BOM_R64_SW BOM_R64_NW BOM_ROCI BOM_POCI BOM_EYE BOM_POS_METHOD BOM_PRES_METHOD NADI_LAT NADI_LON NADI_CAT NADI_WIND NADI_PRES WELLINGTON_LAT WELLINGTON_LON WELLINGTON_WIND WELLINGTON_PRES DS824_LAT DS824_LON DS824_STAGE DS824_WIND DS824_PRES TD9636_LAT TD9636_LON TD9636_STAGE TD9636_WIND TD9636_PRES TD9635_LAT TD9635_LON TD9635_WIND TD9635_PRES TD9635_ROCI NEUMANN_LAT NEUMANN_LON NEUMANN_CLASS NEUMANN_WIND NEUMANN_PRES MLC_LAT MLC_LON MLC_CLASS MLC_WIND MLC_PRES USA_GUST BOM_GUST BOM_GUST_PER REUNION_GUST REUNION_GUST_PER USA_SEAHGT USA_SEARAD_NE USA_SEARAD_SE USA_SEARAD_SW USA_SEARAD_NW STORM_SPEED STORM_DIR
2020304N08148 2020 40 WP MM ATSANI 2020-10-29 12:00:00 NR 8.20000 148.400 PROVISIONAL 1159 1159 O_____________ tcvitals WP232020 8.20000 148.400 25 1006 -1 1009 200 40 16 322
2020304N08148 2020 40 WP MM ATSANI 2020-10-29 15:00:00 NR 8.83286 147.908 PROVISIONAL 1222 1222 P_____________ WP232020 8.83286 147.908 25 1005 -1 1008 192 40 16 321
2020304N08148 2020 40 WP MM ATSANI 2020-10-29 18:00:00 NR 9.40000 147.400 PROVISIONAL 1288 1288 O_____________ tcvitals WP232020 9.40000 147.400 25 1004 -1 1007 185 40 15 314
2020304N08148 2020 40 WP MM ATSANI 2020-10-29 21:00:00 NR 9.86421 146.827 PROVISIONAL 1344 1344 P_____________ WP232020 9.86421 146.827 27 1004 -1 1007 182 40 17 303
2020304N08148 2020 40 WP MM ATSANI 2020-10-30 00:00:00 NR 10.3000 146.000 PROVISIONAL 1391 1391 O_____________ tcvitals WP232020 10.3000 146.000 29 1005 -1 1008 180 40 24 294
2020304N08148 2020 40 WP MM ATSANI 2020-10-30 03:00:00 NR 10.8167 144.628 PROVISIONAL 1462 1462 P_____________ WP232020 10.8167 144.628 29 1005 -1 1008 180 40 28 291
2020304N08148 2020 40 WP MM ATSANI 2020-10-30 06:00:00 NR 11.3000 143.300 PROVISIONAL 1545 1545 O_____________ tcvitals WP232020 11.3000 143.300 29 1005 -1 1008 180 40 21 294
2020304N08148 2020 40 WP MM ATSANI 2020-10-30 09:00:00 NR 11.6937 142.659 PROVISIONAL 1571 1567 P_____________ WP232020 11.6937 142.659 27 1006 -1 1008 172 40 13 303
2020304N08148 2020 40 WP MM ATSANI 2020-10-30 12:00:00 NR 12.0000 142.200 PROVISIONAL 1586 1576 O_____________ tcvitals WP232020 12.0000 142.200 25 1007 -1 1008 165 40 13 292
2020304N08148 2020 40 WP MM ATSANI 2020-10-30 15:00:00 NR 12.1853 141.442 PROVISIONAL 1578 1568 P_____________ WP232020 12.1853 141.442 25 1005 -1 1006 157 50 15 285
2020304N08148 2020 40 WP MM ATSANI 2020-10-30 18:00:00 NR 12.4000 140.700 PROVISIONAL 1571 1567 O_____________ tcvitals WP232020 12.4000 140.700 25 1003 -1 1005 150 60 14 297
2020304N08148 2020 40 WP MM ATSANI 2020-10-30 21:00:00 NR 12.8122 140.162 PROVISIONAL 1580 1533 P_____________ WP232020 12.8122 140.162 27 1003 -1 1006 140 60 13 313
2020304N08148 2020 40 WP MM ATSANI 2020-10-31 00:00:00 NR 13.3000 139.700 PROVISIONAL 1533 1489 O_____________ tcvitals WP232020 13.3000 139.700 29 1004 -1 1007 130 60 13 316
2020304N08148 2020 40 WP MM ATSANI 2020-10-31 03:00:00 NR 13.7798 139.207 PROVISIONAL 1489 1445 P_____________ WP232020 13.7798 139.207 29 1003 -1 1007 135 55 13 313
2020304N08148 2020 40 WP MM ATSANI 2020-10-31 06:00:00 NR 14.2000 138.700 PROVISIONAL 1445 1398 O_____________ tcvitals WP232020 14.2000 138.700 29 1003 -1 1007 140 50 13 306
2020304N08148 2020 40 WP MM ATSANI 2020-10-31 09:00:00 NR 14.5099 138.157 PROVISIONAL 1398 1338 P_____________ WP232020 14.5099 138.157 29 1003 -1 1007 122 47 12 295
2020304N08148 2020 40 WP MM ATSANI 2020-10-31 12:00:00 NR 14.7000 137.600 PROVISIONAL 1338 1296 O_____________ tcvitals WP232020 14.7000 137.600 29 1003 -1 1007 105 45 10 282
2020304N08148 2020 40 WP MM ATSANI 2020-10-31 15:00:00 NR 14.7192 137.124 PROVISIONAL 1285 1224 P_____________ WP232020 14.7192 137.124 29 1001 -1 1005 110 45 11 275
2020304N08148 2020 40 WP MM ATSANI 2020-10-31 18:00:00 NR 14.8000 136.500 PROVISIONAL 1224 1131 O_____________ tcvitals WP232020 14.8000 136.500 29 1000 -1 1004 115 45 17 288
2020304N08148 2020 40 WP MM ATSANI 2020-10-31 21:00:00 NR 15.2209 135.489 PROVISIONAL 1131 1047 P_____________ WP232020 15.2209 135.489 29 1002 -1 1005 120 45 22 294
2020304N08148 2020 40 WP MM ATSANI 2020-11-01 00:00:00 NR 15.7000 134.400 PROVISIONAL 1037 967 O_____________ tcvitals WP232020 15.7000 134.400 29 1004 -1 1007 126 45 20 292
2020304N08148 2020 40 WP MM ATSANI 2020-11-01 03:00:00 NR 15.9645 133.539 PROVISIONAL 962 905 P_____________ WP232020 15.9645 133.539 29 1004 -1 1007 128 42 16 288
2020304N08148 2020 40 WP MM ATSANI 2020-11-01 06:00:00 NR 16.2000 132.800 PROVISIONAL 905 873 O_____________ tcvitals WP232020 16.2000 132.800 29 1004 -1 1007 130 40 15 296
2020304N08148 2020 40 WP MM ATSANI 2020-11-01 09:00:00 NR 16.6093 132.158 PROVISIONAL 873 832 P_____________ WP232020 16.6093 132.158 29 1004 -1 1007 140 40 14 299
2020304N08148 2020 40 WP MM ATSANI 2020-11-01 12:00:00 NR 16.9000 131.500 PROVISIONAL 832 754 O_____________ tcvitals WP232020 16.9000 131.500 29 1004 -1 1007 150 40 14 273
2020304N08148 2020 40 WP MM ATSANI 2020-11-01 15:00:00 NR 16.6896 130.707 PROVISIONAL 745 663 P_____________ WP232020 16.6896 130.707 29 1003 -1 1006 140 40 17 260
2020304N08148 2020 40 WP MM ATSANI 2020-11-01 18:00:00 NR 16.6000 129.800 PROVISIONAL 653 583 O_____________ tcvitals WP232020 16.6000 129.800 29 1003 -1 1006 130 40 21 284
2020304N08148 2020 40 WP MM ATSANI 2020-11-01 21:00:00 NR 17.2016 128.611 PROVISIONAL 582 562 P_____________ WP232020 17.2016 128.611 29 1004 -1 1007 130 40 25 307
2020304N08148 2020 40 WP MM ATSANI 2020-11-02 00:00:00 NR 18.1000 127.700 PROVISIONAL 564 559 O_____________ tcvitals WP232020 18.1000 127.700 29 1005 -1 1008 130 40 20 334
2020304N08148 2020 40 WP MM ATSANI 2020-11-02 03:00:00 NR 19.0241 127.670 PROVISIONAL 572 572 P_____________ WP232020 19.0241 127.670 27 1004 -1 1008 140 45 17 6
2020304N08148 2020 40 WP MM ATSANI 2020-11-02 06:00:00 NR 19.8000 127.900 PROVISIONAL 608 607 O_____________ tcvitals WP232020 19.8000 127.900 25 1004 -1 1008 150 50 12 4
2020304N08148 2020 40 WP MM ATSANI 2020-11-02 09:00:00 NR 20.2075 127.745 PROVISIONAL 601 585 P_____________ WP232020 20.2075 127.745 27 1003 -1 1008 150 42 6 323
2020304N08148 2020 40 WP MM ATSANI 2020-11-02 12:00:00 NR 20.3000 127.500 PROVISIONAL 585 552 O_____________ tcvitals WP232020 20.3000 127.500 29 1002 -1 1008 150 35 5 262
2020304N08148 2020 40 WP MM ATSANI 2020-11-02 15:00:00 NR 20.1375 127.232 PROVISIONAL 548 531 P_____________ WP232020 20.1375 127.232 32 1003 -1 1008 157 35 6 223
2020304N08148 2020 40 WP MM ATSANI 2020-11-02 18:00:00 NR 19.9000 127.100 PROVISIONAL 531 531 O_____________ tcvitals WP232020 19.9000 127.100 35 1004 0 35 25 11 1008 165 35 3 170
2020304N08148 2020 40 WP MM ATSANI 2020-11-02 21:00:00 NR 19.8701 127.283 PROVISIONAL 551 551 P_____________ WP232020 19.8701 127.283 35 1004 0 40 40 33 1008 160 35 5 90
2020304N08148 2020 40 WP MM ATSANI 2020-11-03 00:00:00 NR 19.9000 127.600 PROVISIONAL 581 581 O_____________ tcvitals WP232020 19.9000 127.600 35 1004 0 20 45 55 55 1009 155 35 5 86
2020304N08148 2020 40 WP MM ATSANI 2020-11-03 03:00:00 NR 19.9075 127.850 PROVISIONAL 601 601 P_____________ WP232020 19.9075 127.850 35 1003 0 47 62 77 1009 155 35 5 90
2020304N08148 2020 40 WP MM ATSANI 2020-11-03 06:00:00 NR 19.9000 128.100 PROVISIONAL 631 631 O_____________ tcvitals WP232020 19.9000 128.100 35 1003 0 50 70 100 1009 155 35 5 99
2020304N08148 2020 40 WP MM ATSANI 2020-11-03 09:00:00 NR 19.8275 128.358 PROVISIONAL 659 659 P_____________ WP232020 19.8275 128.358 35 1004 0 57 70 95 1009 167 35 5 102
2020304N08148 2020 40 WP MM ATSANI 2020-11-03 12:00:00 NR 19.8000 128.600 PROVISIONAL 680 680 O_____________ tcvitals WP232020 19.8000 128.600 35 1005 0 55 65 70 90 1010 180 35 4 74
2020304N08148 2020 40 WP MM ATSANI 2020-11-03 15:00:00 NR 19.9424 128.785 PROVISIONAL 703 703 P_____________ WP232020 19.9424 128.785 35 1004 0 55 55 70 90 1009 180 35 5 51
2020304N08148 2020 40 WP MM ATSANI 2020-11-03 18:00:00 NR 20.1000 129.000 PROVISIONAL 728 728 O_____________ tcvitals WP232020 20.1000 129.000 35 1003 0 55 45 70 90 1008 180 35 6 75
2020304N08148 2020 40 WP MM ATSANI 2020-11-03 21:00:00 NR 20.1077 129.425 PROVISIONAL 769 769 P_____________ WP232020 20.1077 129.425 35 1003 0 55 45 70 90 1008 180 35 7 90
2020304N08148 2020 40 WP MM ATSANI 2020-11-04 00:00:00 NR 20.1000 129.700 PROVISIONAL 799 781 O_____________ tcvitals WP232020 20.1000 129.700 35 1003 0 55 45 70 90 1008 180 35 1 17
2020304N08148 2020 40 WP MM ATSANI 2020-11-04 03:00:00 NR 20.2077 129.475 PROVISIONAL 781 744 P_____________ WP232020 20.2077 129.475 40 998 0 117 55 90 142 1007 180 40 6 290
2020304N08148 2020 40 WP MM ATSANI 2020-11-04 06:00:00 NR 20.3000 129.100 PROVISIONAL 744 734 O_____________ tcvitals WP232020 20.3000 129.100 45 993 0 180 65 110 195 1007 180 45 5 278
2020304N08148 2020 40 WP MM ATSANI 2020-11-04 09:00:00 NR 20.2798 128.950 PROVISIONAL 734 711 P_____________ WP232020 20.2798 128.950 48 993 0 162 55 92 172 1008 175 29 3 250
2020304N08148 2020 40 WP MM ATSANI 2020-11-04 12:00:00 NR 20.2000 128.800 PROVISIONAL 711 688 O_____________ tcvitals WP232020 20.2000 128.800 51 993 0 145 45 75 150 1009 170 14 4 240
2020304N08148 2020 40 WP MM ATSANI 2020-11-04 15:00:00 NR 20.0772 128.575 PROVISIONAL 688 644 P_____________ WP232020 20.0772 128.575 51 993 0 155 57 85 162 1009 175 17 6 250
2020304N08148 2020 40 WP MM ATSANI 2020-11-04 18:00:00 NR 20.0000 128.200 PROVISIONAL 644 587 O_____________ tcvitals WP232020 20.0000 128.200 51 993 0 165 70 95 175 1009 180 20 9 271
2020304N08148 2020 40 WP MM ATSANI 2020-11-04 21:00:00 NR 20.0851 127.610 PROVISIONAL 587 523 P_____________ WP232020 20.0851 127.610 51 995 0 160 65 90 170 1010 175 20 12 279
2020304N08148 2020 40 WP MM ATSANI 2020-11-05 00:00:00 NR 20.2000 126.900 PROVISIONAL 523 456 O_____________ tcvitals WP232020 20.2000 126.900 51 997 0 155 60 85 165 1011 170 20 13 274
2020304N08148 2020 40 WP MM ATSANI 2020-11-05 03:00:00 NR 20.1773 126.207 PROVISIONAL 456 391 P_____________ WP232020 20.1773 126.207 52 996 0 120 70 65 147 1010 167 20 13 270
2020304N08148 2020 40 WP MM ATSANI 2020-11-05 06:00:00 NR 20.2000 125.500 PROVISIONAL 391 344 O_____________ tcvitals WP232020 20.2000 125.500 54 995 0 85 80 45 130 1010 165 20 14 281
2020304N08148 2020 40 WP MM ATSANI 2020-11-05 09:00:00 NR 20.4500 124.778 PROVISIONAL 344 318 P_____________ WP232020 20.4500 124.778 54 996 0 90 72 57 112 1011 162 20 14 291
2020304N08148 2020 40 WP MM ATSANI 2020-11-05 12:00:00 NR 20.7000 124.100 PROVISIONAL 318 291 O_____________ tcvitals WP232020 20.7000 124.100 54 997 0 95 65 70 95 1012 160 20 12 284
2020304N08148 2020 40 WP MM ATSANI 2020-11-05 15:00:00 NR 20.7370 123.535 PROVISIONAL 286 255 P_____________ WP232020 20.7370 123.535 52 998 0 95 60 65 90 1012 165 22 10 270
2020304N08148 2020 40 WP MM ATSANI 2020-11-05 18:00:00 NR 20.7000 123.000 PROVISIONAL 255 212 O_____________ tcvitals WP232020 20.7000 123.000 51 1000 0 95 55 60 85 1012 170 25 11 265
2020304N08148 2020 40 WP MM ATSANI 2020-11-05 21:00:00 NR 20.6477 122.370 PROVISIONAL 212 163 P_____________ WP232020 20.6477 122.370 48 1002 0 87 55 60 87 1012 162 25 11 270
2020304N08148 2020 40 WP MM ATSANI 2020-11-06 00:00:00 NR 20.7000 121.800 PROVISIONAL 163 113 O_____________ tcvitals WP232020 20.7000 121.800 45 1004 0 80 55 60 90 1013 155 25 10 292
2020304N08148 2020 40 WP MM ATSANI 2020-11-06 03:00:00 NR 21.0121 121.420 PROVISIONAL 113 59 P_____________ WP232020 21.0121 121.420 45 1003 0 75 57 57 90 1012 155 25 10 317
2020304N08148 2020 40 WP MM ATSANI 2020-11-06 06:00:00 NR 21.4000 121.100 PROVISIONAL 59 22 O_____________ tcvitals WP232020 21.4000 121.100 45 1003 0 70 60 55 90 1012 155 25 10 314
2020304N08148 2020 40 WP MM ATSANI 2020-11-06 09:00:00 NR 21.6726 120.685 PROVISIONAL 22 22 P_____________ WP232020 21.6726 120.685 45 1003 0 65 55 47 87 1012 150 25 9 304
2020304N08148 2020 40 WP MM ATSANI 2020-11-06 12:00:00 NR 21.9000 120.300 PROVISIONAL 41 41 O_____________ tcvitals WP232020 21.9000 120.300 45 1004 0 60 50 40 85 1013 145 25 8 306
2020304N08148 2020 40 WP MM ATSANI 2020-11-06 15:00:00 NR 22.1149 120.020 PROVISIONAL 54 45 P_____________ WP232020 22.1149 120.020 48 1002 0 60 50 40 85 1013 145 22 6 311
2020304N08148 2020 40 WP MM ATSANI 2020-11-06 18:00:00 NR 22.3000 119.800 PROVISIONAL 56 56 O_____________ tcvitals WP232020 22.3000 119.800 51 1001 0 60 50 40 85 1013 145 20 5 311
2020304N08148 2020 40 WP MM ATSANI 2020-11-06 21:00:00 NR 22.4725 119.577 PROVISIONAL 70 70 P_____________ WP232020 22.4725 119.577 51 1000 0 80 40 37 105 1013 145 20 5 309
2020304N08148 2020 40 WP MM ATSANI 2020-11-07 00:00:00 NR 22.6000 119.400 PROVISIONAL 85 85 O_____________ tcvitals WP232020 22.6000 119.400 51 999 0 100 30 35 126 1013 145 20 3 311
2020304N08148 2020 40 WP MM ATSANI 2020-11-07 03:00:00 NR 22.6799 119.315 PROVISIONAL 92 92 P_____________ WP232020 22.6799 119.315 45 1002 0 97 40 42 88 1013 145 20 2 299
2020304N08148 2020 40 WP MM ATSANI 2020-11-07 06:00:00 NR 22.7000 119.200 PROVISIONAL 102 102 O_____________ tcvitals WP232020 22.7000 119.200 39 1006 0 95 50 50 50 1014 145 20 3 268
2020304N08148 2020 40 WP MM ATSANI 2020-11-07 09:00:00 NR 22.6653 118.945 PROVISIONAL 130 130 P_____________ WP232020 22.6653 118.945 34 1007 0 1014 145 25 6 260
2020304N08148 2020 40 WP MM ATSANI 2020-11-07 12:00:00 NR 22.6000 118.600 PROVISIONAL 159 O_____________ tcvitals WP232020 22.6000 118.600 29 1009 -1 1015 145 30 7 258

Digital Typhoon Data and Search

About IBTrACS Database

This database is a web-friendly format of International Best Track Archive for Climate Stewardship (IBTrACS), a global best track data archive curated by NOAA dating back to 1842.

Updated: 2021-11-26